sensor_id;sensor_type;location;lat;lon;timestamp;pressure;altitude;pressure_sealevel;temperature;humidity
18533;BME280;9396;51.510;11.934;2023-08-20T00:00:20;100806.69;;;24.22;100.00
18533;BME280;9396;51.510;11.934;2023-08-20T00:02:51;100813.03;;;24.16;100.00
18533;BME280;9396;51.510;11.934;2023-08-20T00:05:21;100813.16;;;24.21;100.00
18533;BME280;9396;51.510;11.934;2023-08-20T00:07:48;100824.53;;;24.18;100.00
18533;BME280;9396;51.510;11.934;2023-08-20T00:10:15;100820.16;;;24.17;100.00
18533;BME280;9396;51.510;11.934;2023-08-20T00:12:42;100812.44;;;24.14;100.00
18533;BME280;9396;51.510;11.934;2023-08-20T00:15:10;100814.72;;;24.17;100.00
18533;BME280;9396;51.510;11.934;2023-08-20T00:17:38;100819.69;;;24.20;100.00
18533;BME280;9396;51.510;11.934;2023-08-20T00:20:06;100822.88;;;24.17;100.00
18533;BME280;9396;51.510;11.934;2023-08-20T00:22:36;100826.03;;;24.14;100.00
18533;BME280;9396;51.510;11.934;2023-08-20T00:25:03;100828.31;;;24.17;100.00
18533;BME280;9396;51.510;11.934;2023-08-20T00:27:30;100832.69;;;24.18;100.00
18533;BME280;9396;51.510;11.934;2023-08-20T00:29:57;100831.03;;;24.17;100.00
18533;BME280;9396;51.510;11.934;2023-08-20T00:32:25;100834.00;;;24.15;100.00
18533;BME280;9396;51.510;11.934;2023-08-20T00:34:52;100839.63;;;24.14;100.00
18533;BME280;9396;51.510;11.934;2023-08-20T00:37:18;100837.00;;;24.07;100.00
18533;BME280;9396;51.510;11.934;2023-08-20T00:39:45;100845.19;;;24.07;100.00
18533;BME280;9396;51.510;11.934;2023-08-20T00:42:12;100838.22;;;24.11;100.00
18533;BME280;9396;51.510;11.934;2023-08-20T00:44:39;100842.44;;;24.07;100.00
18533;BME280;9396;51.510;11.934;2023-08-20T00:47:07;100843.16;;;24.03;100.00
18533;BME280;9396;51.510;11.934;2023-08-20T00:49:36;100846.91;;;24.02;100.00
18533;BME280;9396;51.510;11.934;2023-08-20T00:52:06;100848.81;;;24.01;100.00
18533;BME280;9396;51.510;11.934;2023-08-20T00:54:35;100852.78;;;23.99;100.00
18533;BME280;9396;51.510;11.934;2023-08-20T00:57:02;100837.63;;;23.91;100.00
18533;BME280;9396;51.510;11.934;2023-08-20T00:59:29;100866.03;;;23.95;100.00
18533;BME280;9396;51.510;11.934;2023-08-20T01:01:57;100854.84;;;23.85;100.00
18533;BME280;9396;51.510;11.934;2023-08-20T01:04:24;100857.72;;;23.90;100.00
18533;BME280;9396;51.510;11.934;2023-08-20T01:06:56;100860.69;;;23.89;100.00
18533;BME280;9396;51.510;11.934;2023-08-20T01:09:37;100848.84;;;23.83;100.00
18533;BME280;9396;51.510;11.934;2023-08-20T01:12:10;100857.41;;;23.80;100.00
18533;BME280;9396;51.510;11.934;2023-08-20T01:14:36;100854.34;;;23.77;100.00
18533;BME280;9396;51.510;11.934;2023-08-20T01:17:03;100859.63;;;23.72;100.00
18533;BME280;9396;51.510;11.934;2023-08-20T01:19:30;100861.75;;;23.70;100.00
18533;BME280;9396;51.510;11.934;2023-08-20T01:22:19;100869.66;;;23.71;100.00
18533;BME280;9396;51.510;11.934;2023-08-20T01:24:59;100862.94;;;23.74;100.00
18533;BME280;9396;51.510;11.934;2023-08-20T01:27:41;100862.13;;;23.73;100.00
18533;BME280;9396;51.510;11.934;2023-08-20T01:30:12;100869.09;;;23.69;100.00
18533;BME280;9396;51.510;11.934;2023-08-20T01:32:39;100873.69;;;23.69;100.00
18533;BME280;9396;51.510;11.934;2023-08-20T01:35:08;100863.47;;;23.64;100.00
18533;BME280;9396;51.510;11.934;2023-08-20T01:37:38;100869.84;;;23.58;100.00
18533;BME280;9396;51.510;11.934;2023-08-20T01:40:06;100867.78;;;23.54;100.00
18533;BME280;9396;51.510;11.934;2023-08-20T01:42:33;100868.41;;;23.56;100.00
18533;BME280;9396;51.510;11.934;2023-08-20T01:45:00;100866.81;;;23.48;100.00
18533;BME280;9396;51.510;11.934;2023-08-20T01:47:28;100871.72;;;23.40;100.00
18533;BME280;9396;51.510;11.934;2023-08-20T01:49:55;100870.44;;;23.42;100.00
18533;BME280;9396;51.510;11.934;2023-08-20T01:52:21;100873.75;;;23.44;100.00
18533;BME280;9396;51.510;11.934;2023-08-20T01:54:48;100881.00;;;23.50;100.00
18533;BME280;9396;51.510;11.934;2023-08-20T01:57:15;100874.53;;;23.51;100.00
18533;BME280;9396;51.510;11.934;2023-08-20T01:59:42;100881.06;;;23.44;100.00
18533;BME280;9396;51.510;11.934;2023-08-20T02:02:09;100882.81;;;23.38;100.00
18533;BME280;9396;51.510;11.934;2023-08-20T02:04:37;100889.88;;;23.39;100.00
18533;BME280;9396;51.510;11.934;2023-08-20T02:07:03;100883.19;;;23.42;100.00
18533;BME280;9396;51.510;11.934;2023-08-20T02:09:30;100885.97;;;23.35;100.00
18533;BME280;9396;51.510;11.934;2023-08-20T02:11:57;100894.13;;;23.35;100.00
18533;BME280;9396;51.510;11.934;2023-08-20T02:14:23;100900.22;;;23.30;100.00
18533;BME280;9396;51.510;11.934;2023-08-20T02:16:52;100894.59;;;23.25;100.00
18533;BME280;9396;51.510;11.934;2023-08-20T02:19:19;100901.13;;;23.18;100.00
18533;BME280;9396;51.510;11.934;2023-08-20T02:21:47;100897.31;;;23.25;100.00
18533;BME280;9396;51.510;11.934;2023-08-20T02:24:13;100905.81;;;23.11;100.00
18533;BME280;9396;51.510;11.934;2023-08-20T02:26:40;100910.72;;;23.20;100.00
18533;BME280;9396;51.510;11.934;2023-08-20T02:29:06;100904.25;;;23.21;100.00
18533;BME280;9396;51.510;11.934;2023-08-20T02:31:33;100903.59;;;23.26;100.00
18533;BME280;9396;51.510;11.934;2023-08-20T02:34:00;100902.13;;;23.23;100.00
18533;BME280;9396;51.510;11.934;2023-08-20T02:36:26;100918.88;;;23.20;100.00
18533;BME280;9396;51.510;11.934;2023-08-20T02:38:54;100910.06;;;23.25;100.00
18533;BME280;9396;51.510;11.934;2023-08-20T02:41:21;100919.91;;;23.19;100.00
18533;BME280;9396;51.510;11.934;2023-08-20T02:43:48;100913.44;;;23.20;100.00
18533;BME280;9396;51.510;11.934;2023-08-20T02:46:15;100916.41;;;23.19;100.00
18533;BME280;9396;51.510;11.934;2023-08-20T02:48:41;100909.75;;;23.15;100.00
18533;BME280;9396;51.510;11.934;2023-08-20T02:51:08;100904.69;;;23.18;100.00
18533;BME280;9396;51.510;11.934;2023-08-20T02:53:35;100904.16;;;23.10;100.00
18533;BME280;9396;51.510;11.934;2023-08-20T02:56:03;100904.63;;;23.07;100.00
18533;BME280;9396;51.510;11.934;2023-08-20T02:58:30;100915.06;;;23.03;100.00
18533;BME280;9396;51.510;11.934;2023-08-20T03:00:56;100907.44;;;22.94;100.00
18533;BME280;9396;51.510;11.934;2023-08-20T03:03:23;100914.97;;;22.92;100.00
18533;BME280;9396;51.510;11.934;2023-08-20T03:05:50;100918.44;;;22.99;100.00
18533;BME280;9396;51.510;11.934;2023-08-20T03:08:17;100927.84;;;22.96;100.00
18533;BME280;9396;51.510;11.934;2023-08-20T03:10:43;100921.88;;;22.88;100.00
18533;BME280;9396;51.510;11.934;2023-08-20T03:13:11;100924.16;;;22.91;100.00
18533;BME280;9396;51.510;11.934;2023-08-20T03:15:38;100930.84;;;22.88;100.00
18533;BME280;9396;51.510;11.934;2023-08-20T03:18:06;100924.41;;;22.83;100.00
18533;BME280;9396;51.510;11.934;2023-08-20T03:20:32;100923.59;;;22.82;100.00
18533;BME280;9396;51.510;11.934;2023-08-20T03:22:59;100929.91;;;22.76;100.00
18533;BME280;9396;51.510;11.934;2023-08-20T03:25:26;100933.44;;;22.77;100.00
18533;BME280;9396;51.510;11.934;2023-08-20T03:27:53;100934.97;;;22.66;100.00
18533;BME280;9396;51.510;11.934;2023-08-20T03:30:21;100932.06;;;22.68;100.00
18533;BME280;9396;51.510;11.934;2023-08-20T03:32:48;100935.88;;;22.60;100.00
18533;BME280;9396;51.510;11.934;2023-08-20T03:35:14;100924.09;;;22.73;100.00
18533;BME280;9396;51.510;11.934;2023-08-20T03:37:41;100932.84;;;22.75;100.00
18533;BME280;9396;51.510;11.934;2023-08-20T03:40:08;100923.25;;;22.72;100.00
18533;BME280;9396;51.510;11.934;2023-08-20T03:42:35;100929.06;;;22.76;100.00
18533;BME280;9396;51.510;11.934;2023-08-20T03:45:02;100937.09;;;22.64;100.00
18533;BME280;9396;51.510;11.934;2023-08-20T03:47:30;100938.13;;;22.63;100.00
18533;BME280;9396;51.510;11.934;2023-08-20T03:49:57;100938.59;;;22.60;100.00
18533;BME280;9396;51.510;11.934;2023-08-20T03:52:23;100942.56;;;22.58;100.00
18533;BME280;9396;51.510;11.934;2023-08-20T03:54:50;100936.75;;;22.48;100.00
18533;BME280;9396;51.510;11.934;2023-08-20T03:57:17;100941.34;;;22.47;100.00
18533;BME280;9396;51.510;11.934;2023-08-20T03:59:43;100943.25;;;22.40;100.00
18533;BME280;9396;51.510;11.934;2023-08-20T04:02:11;100945.34;;;22.38;100.00
18533;BME280;9396;51.510;11.934;2023-08-20T04:04:39;100937.88;;;22.33;100.00
18533;BME280;9396;51.510;11.934;2023-08-20T04:07:06;100938.50;;;22.36;100.00
18533;BME280;9396;51.510;11.934;2023-08-20T04:09:32;100939.69;;;22.46;100.00
18533;BME280;9396;51.510;11.934;2023-08-20T04:12:00;100945.28;;;22.51;100.00
18533;BME280;9396;51.510;11.934;2023-08-20T04:14:27;100931.69;;;22.58;100.00
18533;BME280;9396;51.510;11.934;2023-08-20T04:16:53;100934.84;;;22.55;100.00
18533;BME280;9396;51.510;11.934;2023-08-20T04:19:20;100942.78;;;22.56;100.00
18533;BME280;9396;51.510;11.934;2023-08-20T04:21:48;100944.91;;;22.41;100.00
18533;BME280;9396;51.510;11.934;2023-08-20T04:24:15;100946.59;;;22.42;100.00
18533;BME280;9396;51.510;11.934;2023-08-20T04:26:42;100951.16;;;22.48;100.00
18533;BME280;9396;51.510;11.934;2023-08-20T04:29:09;100943.44;;;22.45;100.00
18533;BME280;9396;51.510;11.934;2023-08-20T04:31:35;100950.09;;;22.49;100.00
18533;BME280;9396;51.510;11.934;2023-08-20T04:34:02;100951.31;;;22.53;100.00
18533;BME280;9396;51.510;11.934;2023-08-20T04:36:29;100948.84;;;22.52;100.00
18533;BME280;9396;51.510;11.934;2023-08-20T04:38:57;100957.44;;;22.42;100.00
18533;BME280;9396;51.510;11.934;2023-08-20T04:41:24;100965.53;;;22.55;100.00
18533;BME280;9396;51.510;11.934;2023-08-20T04:43:50;100954.22;;;22.58;100.00
18533;BME280;9396;51.510;11.934;2023-08-20T04:46:17;100955.50;;;22.56;100.00
18533;BME280;9396;51.510;11.934;2023-08-20T04:48:43;100960.00;;;22.68;100.00
18533;BME280;9396;51.510;11.934;2023-08-20T04:51:10;100956.09;;;22.64;100.00
18533;BME280;9396;51.510;11.934;2023-08-20T04:53:37;100959.22;;;22.61;100.00
18533;BME280;9396;51.510;11.934;2023-08-20T04:56:05;100965.03;;;22.65;100.00
18533;BME280;9396;51.510;11.934;2023-08-20T04:58:31;100966.03;;;22.70;100.00
18533;BME280;9396;51.510;11.934;2023-08-20T05:00:58;100972.78;;;22.61;100.00
18533;BME280;9396;51.510;11.934;2023-08-20T05:03:25;100967.34;;;22.61;100.00
18533;BME280;9396;51.510;11.934;2023-08-20T05:05:52;100972.94;;;22.66;100.00
18533;BME280;9396;51.510;11.934;2023-08-20T05:08:18;100979.88;;;22.62;100.00
18533;BME280;9396;51.510;11.934;2023-08-20T05:10:45;100979.69;;;22.51;100.00
18533;BME280;9396;51.510;11.934;2023-08-20T05:13:13;100981.34;;;22.58;100.00
18533;BME280;9396;51.510;11.934;2023-08-20T05:15:39;100990.34;;;22.59;100.00
18533;BME280;9396;51.510;11.934;2023-08-20T05:18:06;100992.16;;;22.65;100.00
18533;BME280;9396;51.510;11.934;2023-08-20T05:20:33;100987.13;;;22.68;100.00
18533;BME280;9396;51.510;11.934;2023-08-20T05:22:59;100985.03;;;22.70;100.00
18533;BME280;9396;51.510;11.934;2023-08-20T05:25:26;100996.69;;;22.77;100.00
18533;BME280;9396;51.510;11.934;2023-08-20T05:27:53;100992.56;;;22.68;100.00
18533;BME280;9396;51.510;11.934;2023-08-20T05:30:21;100992.31;;;22.76;100.00
18533;BME280;9396;51.510;11.934;2023-08-20T05:32:47;100990.25;;;22.72;100.00
18533;BME280;9396;51.510;11.934;2023-08-20T05:35:14;100994.13;;;22.82;100.00
18533;BME280;9396;51.510;11.934;2023-08-20T05:37:41;100992.88;;;22.85;100.00
18533;BME280;9396;51.510;11.934;2023-08-20T05:40:08;100992.00;;;22.91;100.00
18533;BME280;9396;51.510;11.934;2023-08-20T05:42:35;100999.53;;;22.89;100.00
18533;BME280;9396;51.510;11.934;2023-08-20T05:45:02;101000.16;;;22.91;100.00
18533;BME280;9396;51.510;11.934;2023-08-20T05:47:30;100999.78;;;22.81;100.00
18533;BME280;9396;51.510;11.934;2023-08-20T05:49:57;101004.97;;;22.82;100.00
18533;BME280;9396;51.510;11.934;2023-08-20T05:52:23;101004.34;;;22.87;100.00
18533;BME280;9396;51.510;11.934;2023-08-20T05:54:50;101010.19;;;22.84;100.00
18533;BME280;9396;51.510;11.934;2023-08-20T05:57:16;101017.28;;;22.85;100.00
18533;BME280;9396;51.510;11.934;2023-08-20T05:59:43;101018.94;;;22.92;100.00
18533;BME280;9396;51.510;11.934;2023-08-20T06:02:10;101022.84;;;22.96;100.00
18533;BME280;9396;51.510;11.934;2023-08-20T06:04:38;101030.41;;;22.94;100.00
18533;BME280;9396;51.510;11.934;2023-08-20T06:07:04;101033.69;;;23.03;100.00
18533;BME280;9396;51.510;11.934;2023-08-20T06:09:31;101040.13;;;23.08;100.00
18533;BME280;9396;51.510;11.934;2023-08-20T06:11:58;101039.22;;;23.14;100.00
18533;BME280;9396;51.510;11.934;2023-08-20T06:14:24;101040.44;;;23.18;100.00
18533;BME280;9396;51.510;11.934;2023-08-20T06:16:51;101047.97;;;23.16;100.00
18533;BME280;9396;51.510;11.934;2023-08-20T06:19:17;101055.91;;;23.18;100.00
18533;BME280;9396;51.510;11.934;2023-08-20T06:21:45;101047.63;;;23.06;100.00
18533;BME280;9396;51.510;11.934;2023-08-20T06:24:12;101048.69;;;23.05;100.00
18533;BME280;9396;51.510;11.934;2023-08-20T06:26:38;101062.75;;;22.89;100.00
18533;BME280;9396;51.510;11.934;2023-08-20T06:29:05;101058.91;;;23.03;100.00
18533;BME280;9396;51.510;11.934;2023-08-20T06:31:32;101064.53;;;23.08;100.00
18533;BME280;9396;51.510;11.934;2023-08-20T06:33:58;101065.75;;;23.12;100.00
18533;BME280;9396;51.510;11.934;2023-08-20T06:36:25;101061.81;;;23.08;100.00
18533;BME280;9396;51.510;11.934;2023-08-20T06:38:53;101064.97;;;23.05;100.00
18533;BME280;9396;51.510;11.934;2023-08-20T06:41:19;101079.59;;;23.04;100.00
18533;BME280;9396;51.510;11.934;2023-08-20T06:43:46;101085.88;;;22.98;100.00
18533;BME280;9396;51.510;11.934;2023-08-20T06:46:13;101083.78;;;23.00;100.00
18533;BME280;9396;51.510;11.934;2023-08-20T06:48:39;101084.63;;;23.01;100.00
18533;BME280;9396;51.510;11.934;2023-08-20T06:51:11;101082.56;;;22.96;100.00
18533;BME280;9396;51.510;11.934;2023-08-20T06:53:38;101084.88;;;22.93;100.00
18533;BME280;9396;51.510;11.934;2023-08-20T06:56:07;101082.56;;;22.96;100.00
18533;BME280;9396;51.510;11.934;2023-08-20T06:58:34;101093.47;;;22.90;100.00
18533;BME280;9396;51.510;11.934;2023-08-20T07:01:01;101087.78;;;22.98;100.00
18533;BME280;9396;51.510;11.934;2023-08-20T07:03:33;101095.94;;;22.98;100.00
18533;BME280;9396;51.510;11.934;2023-08-20T07:06:00;101076.94;;;22.98;100.00
18533;BME280;9396;51.510;11.934;2023-08-20T07:08:27;101072.28;;;23.05;100.00
18533;BME280;9396;51.510;11.934;2023-08-20T07:10:53;101071.16;;;23.19;100.00
18533;BME280;9396;51.510;11.934;2023-08-20T07:13:22;101073.47;;;23.15;100.00
18533;BME280;9396;51.510;11.934;2023-08-20T07:15:49;101081.44;;;23.42;100.00
18533;BME280;9396;51.510;11.934;2023-08-20T07:18:15;101090.03;;;23.88;100.00
18533;BME280;9396;51.510;11.934;2023-08-20T07:20:42;101097.50;;;24.53;100.00
18533;BME280;9396;51.510;11.934;2023-08-20T07:23:09;101095.47;;;25.14;100.00
18533;BME280;9396;51.510;11.934;2023-08-20T07:25:36;101096.91;;;25.81;100.00
18533;BME280;9396;51.510;11.934;2023-08-20T07:28:04;101097.91;;;26.10;96.49
18533;BME280;9396;51.510;11.934;2023-08-20T07:30:32;101101.44;;;25.87;97.60
18533;BME280;9396;51.510;11.934;2023-08-20T07:32:58;101099.06;;;25.56;96.03
18533;BME280;9396;51.510;11.934;2023-08-20T07:35:25;101110.38;;;26.06;98.48
18533;BME280;9396;51.510;11.934;2023-08-20T07:37:52;101121.47;;;26.27;92.36
18533;BME280;9396;51.510;11.934;2023-08-20T07:40:19;101111.75;;;25.97;93.04
18533;BME280;9396;51.510;11.934;2023-08-20T07:42:46;101119.56;;;25.82;93.48
18533;BME280;9396;51.510;11.934;2023-08-20T07:45:12;101111.63;;;25.27;95.35
18533;BME280;9396;51.510;11.934;2023-08-20T07:47:40;101107.69;;;25.23;97.30
18533;BME280;9396;51.510;11.934;2023-08-20T07:50:07;101117.34;;;25.08;97.71
18533;BME280;9396;51.510;11.934;2023-08-20T07:52:34;101117.53;;;24.95;100.00
18533;BME280;9396;51.510;11.934;2023-08-20T07:55:01;101123.59;;;24.79;100.00
18533;BME280;9396;51.510;11.934;2023-08-20T07:57:27;101119.59;;;24.63;100.00
18533;BME280;9396;51.510;11.934;2023-08-20T07:59:54;101126.78;;;24.58;100.00
18533;BME280;9396;51.510;11.934;2023-08-20T08:02:21;101120.72;;;24.56;100.00
18533;BME280;9396;51.510;11.934;2023-08-20T08:04:49;101118.09;;;24.49;100.00
18533;BME280;9396;51.510;11.934;2023-08-20T08:07:16;101117.16;;;24.37;100.00
18533;BME280;9396;51.510;11.934;2023-08-20T08:09:42;101126.38;;;24.18;100.00
18533;BME280;9396;51.510;11.934;2023-08-20T08:12:10;101126.81;;;24.15;100.00
18533;BME280;9396;51.510;11.934;2023-08-20T08:14:37;101123.00;;;24.22;100.00
18533;BME280;9396;51.510;11.934;2023-08-20T08:17:04;101122.03;;;24.35;100.00
18533;BME280;9396;51.510;11.934;2023-08-20T08:19:31;101122.78;;;24.42;100.00
18533;BME280;9396;51.510;11.934;2023-08-20T08:21:59;101120.50;;;24.57;100.00
18533;BME280;9396;51.510;11.934;2023-08-20T08:24:25;101120.19;;;24.47;100.00
18533;BME280;9396;51.510;11.934;2023-08-20T08:26:52;101110.91;;;24.55;100.00
18533;BME280;9396;51.510;11.934;2023-08-20T08:29:19;101116.63;;;24.65;100.00
18533;BME280;9396;51.510;11.934;2023-08-20T08:31:45;101113.56;;;24.79;100.00
18533;BME280;9396;51.510;11.934;2023-08-20T08:34:12;101111.81;;;24.85;100.00
18533;BME280;9396;51.510;11.934;2023-08-20T08:36:39;101105.06;;;24.87;100.00
18533;BME280;9396;51.510;11.934;2023-08-20T08:39:07;101117.63;;;24.88;100.00
18533;BME280;9396;51.510;11.934;2023-08-20T08:41:35;101110.00;;;24.79;100.00
18533;BME280;9396;51.510;11.934;2023-08-20T08:44:06;101112.72;;;24.79;100.00
18533;BME280;9396;51.510;11.934;2023-08-20T08:46:35;101106.00;;;24.81;100.00
18533;BME280;9396;51.510;11.934;2023-08-20T08:49:02;101104.44;;;24.85;100.00
18533;BME280;9396;51.510;11.934;2023-08-20T08:51:30;101104.28;;;24.98;100.00
18533;BME280;9396;51.510;11.934;2023-08-20T08:53:57;101100.66;;;25.04;99.85
18533;BME280;9396;51.510;11.934;2023-08-20T08:56:26;101108.72;;;25.11;99.23
18533;BME280;9396;51.510;11.934;2023-08-20T08:58:53;101107.50;;;25.36;99.58
18533;BME280;9396;51.510;11.934;2023-08-20T09:01:20;101108.09;;;25.38;99.23
18533;BME280;9396;51.510;11.934;2023-08-20T09:03:47;101111.94;;;25.49;99.86
18533;BME280;9396;51.510;11.934;2023-08-20T09:06:14;101110.69;;;25.63;98.94
18533;BME280;9396;51.510;11.934;2023-08-20T09:08:40;101114.22;;;25.87;100.00
18533;BME280;9396;51.510;11.934;2023-08-20T09:11:07;101115.34;;;26.09;100.00
18533;BME280;9396;51.510;11.934;2023-08-20T09:13:36;101115.06;;;25.87;95.81
18533;BME280;9396;51.510;11.934;2023-08-20T09:16:04;101104.50;;;25.56;95.48
18533;BME280;9396;51.510;11.934;2023-08-20T09:18:31;101100.13;;;25.67;97.70
18533;BME280;9396;51.510;11.934;2023-08-20T09:20:58;101100.34;;;25.88;96.29
18533;BME280;9396;51.510;11.934;2023-08-20T09:23:28;101099.09;;;26.14;96.57
18533;BME280;9396;51.510;11.934;2023-08-20T09:25:56;101102.72;;;26.31;95.23
18533;BME280;9396;51.510;11.934;2023-08-20T09:28:22;101092.19;;;26.34;94.91
18533;BME280;9396;51.510;11.934;2023-08-20T09:30:57;101086.16;;;26.32;95.16
18533;BME280;9396;51.510;11.934;2023-08-20T09:33:26;101087.69;;;26.28;95.06
18533;BME280;9396;51.510;11.934;2023-08-20T09:35:53;101096.06;;;26.50;95.62
18533;BME280;9396;51.510;11.934;2023-08-20T09:38:20;101101.84;;;26.65;93.12
18533;BME280;9396;51.510;11.934;2023-08-20T09:40:50;101094.13;;;26.74;94.17
18533;BME280;9396;51.510;11.934;2023-08-20T09:43:18;101093.16;;;26.80;95.56
18533;BME280;9396;51.510;11.934;2023-08-20T09:45:46;101081.22;;;26.97;93.71
18533;BME280;9396;51.510;11.934;2023-08-20T09:48:18;101090.56;;;26.62;90.75
18533;BME280;9396;51.510;11.934;2023-08-20T09:50:47;101086.56;;;26.53;92.36
18533;BME280;9396;51.510;11.934;2023-08-20T09:53:21;101079.91;;;26.60;91.99
18533;BME280;9396;51.510;11.934;2023-08-20T09:55:50;101090.41;;;26.17;90.30
18533;BME280;9396;51.510;11.934;2023-08-20T09:58:18;101086.50;;;26.01;92.34
18533;BME280;9396;51.510;11.934;2023-08-20T10:00:48;101093.63;;;26.14;94.48
18533;BME280;9396;51.510;11.934;2023-08-20T10:03:16;101095.88;;;26.28;95.37
18533;BME280;9396;51.510;11.934;2023-08-20T10:05:45;101088.78;;;26.04;91.95
18533;BME280;9396;51.510;11.934;2023-08-20T10:08:14;101092.19;;;25.88;93.31
18533;BME280;9396;51.510;11.934;2023-08-20T10:10:41;101093.13;;;25.82;93.20
18533;BME280;9396;51.510;11.934;2023-08-20T10:13:08;101092.44;;;26.10;96.16
18533;BME280;9396;51.510;11.934;2023-08-20T10:15:35;101084.38;;;26.26;95.72
18533;BME280;9396;51.510;11.934;2023-08-20T10:18:03;101079.97;;;26.37;95.63
18533;BME280;9396;51.510;11.934;2023-08-20T10:20:31;101086.16;;;26.32;92.09
18533;BME280;9396;51.510;11.934;2023-08-20T10:23:00;101086.47;;;26.48;95.10
18533;BME280;9396;51.510;11.934;2023-08-20T10:25:29;101078.13;;;26.54;96.30
18533;BME280;9396;51.510;11.934;2023-08-20T10:28:12;101079.69;;;26.50;91.35
18533;BME280;9396;51.510;11.934;2023-08-20T10:31:06;101081.25;;;26.46;91.18
18533;BME280;9396;51.510;11.934;2023-08-20T10:33:37;101071.47;;;26.62;94.38
18533;BME280;9396;51.510;11.934;2023-08-20T10:36:14;101074.28;;;26.67;94.41
18533;BME280;9396;51.510;11.934;2023-08-20T10:38:41;101067.66;;;26.74;95.49
18533;BME280;9396;51.510;11.934;2023-08-20T10:41:08;101068.91;;;26.83;95.61
18533;BME280;9396;51.510;11.934;2023-08-20T10:43:37;101067.97;;;26.89;96.03
18533;BME280;9396;51.510;11.934;2023-08-20T10:46:05;101063.19;;;26.96;94.47
18533;BME280;9396;51.510;11.934;2023-08-20T10:48:32;101067.97;;;26.89;95.30
18533;BME280;9396;51.510;11.934;2023-08-20T10:51:08;101070.34;;;26.86;92.11
18533;BME280;9396;51.510;11.934;2023-08-20T10:53:35;101074.00;;;26.91;92.57
18533;BME280;9396;51.510;11.934;2023-08-20T10:56:13;101078.38;;;26.92;94.83
18533;BME280;9396;51.510;11.934;2023-08-20T10:58:45;101080.69;;;26.84;91.85
18533;BME280;9396;51.510;11.934;2023-08-20T11:01:16;101064.06;;;26.85;95.41
18533;BME280;9396;51.510;11.934;2023-08-20T11:03:44;101058.50;;;26.80;95.90
18533;BME280;9396;51.510;11.934;2023-08-20T11:06:13;101070.09;;;26.87;98.17
18533;BME280;9396;51.510;11.934;2023-08-20T11:08:39;101073.09;;;26.86;96.30
18533;BME280;9396;51.510;11.934;2023-08-20T11:11:08;101067.47;;;26.92;93.98
18533;BME280;9396;51.510;11.934;2023-08-20T11:13:35;101069.94;;;26.94;95.03
18533;BME280;9396;51.510;11.934;2023-08-20T11:16:02;101071.06;;;26.81;95.35
18533;BME280;9396;51.510;11.934;2023-08-20T11:18:30;101069.53;;;26.74;95.25
18533;BME280;9396;51.510;11.934;2023-08-20T11:20:57;101077.75;;;26.62;93.62
18533;BME280;9396;51.510;11.934;2023-08-20T11:23:25;101076.00;;;26.68;96.73
18533;BME280;9396;51.510;11.934;2023-08-20T11:25:51;101069.66;;;26.67;93.37
18533;BME280;9396;51.510;11.934;2023-08-20T11:28:18;101074.03;;;26.80;94.59
18533;BME280;9396;51.510;11.934;2023-08-20T11:30:46;101068.03;;;26.66;94.51
18533;BME280;9396;51.510;11.934;2023-08-20T11:33:12;101074.19;;;26.73;95.50
18533;BME280;9396;51.510;11.934;2023-08-20T11:35:39;101068.25;;;26.76;95.27
18533;BME280;9396;51.510;11.934;2023-08-20T11:38:06;101065.13;;;26.84;95.43
18533;BME280;9396;51.510;11.934;2023-08-20T11:40:34;101064.13;;;26.90;94.75
18533;BME280;9396;51.510;11.934;2023-08-20T11:43:00;101067.63;;;26.86;91.72
18533;BME280;9396;51.510;11.934;2023-08-20T11:45:28;101056.81;;;26.79;93.79
18533;BME280;9396;51.510;11.934;2023-08-20T11:47:56;101060.47;;;26.85;96.46
18533;BME280;9396;51.510;11.934;2023-08-20T11:50:24;101049.66;;;26.90;95.50
18533;BME280;9396;51.510;11.934;2023-08-20T11:52:52;101051.66;;;26.94;93.95
18533;BME280;9396;51.510;11.934;2023-08-20T11:55:22;101057.22;;;26.99;95.86
18533;BME280;9396;51.510;11.934;2023-08-20T11:57:51;101049.25;;;26.98;95.13
18533;BME280;9396;51.510;11.934;2023-08-20T12:00:24;101056.50;;;27.04;94.14
18533;BME280;9396;51.510;11.934;2023-08-20T12:02:52;101059.22;;;27.04;95.42
18533;BME280;9396;51.510;11.934;2023-08-20T12:05:19;101051.59;;;27.06;94.48
18533;BME280;9396;51.510;11.934;2023-08-20T12:07:54;101055.56;;;26.98;91.10
18533;BME280;9396;51.510;11.934;2023-08-20T12:10:23;101047.13;;;27.00;93.34
18533;BME280;9396;51.510;11.934;2023-08-20T12:12:51;101060.78;;;27.00;95.14
18533;BME280;9396;51.510;11.934;2023-08-20T12:15:18;101052.84;;;26.98;94.92
18533;BME280;9396;51.510;11.934;2023-08-20T12:21:06;101047.50;;;26.92;94.02
18533;BME280;9396;51.510;11.934;2023-08-20T12:23:33;101045.28;;;26.89;94.48
18533;BME280;9396;51.510;11.934;2023-08-20T12:26:00;101039.06;;;26.93;94.37
18533;BME280;9396;51.510;11.934;2023-08-20T12:28:28;101032.53;;;26.94;94.77
18533;BME280;9396;51.510;11.934;2023-08-20T12:30:54;101033.59;;;26.93;94.54
18533;BME280;9396;51.510;11.934;2023-08-20T12:33:21;101029.22;;;26.92;93.98
18533;BME280;9396;51.510;11.934;2023-08-20T12:35:48;101026.91;;;26.84;94.20
18533;BME280;9396;51.510;11.934;2023-08-20T12:38:15;101035.09;;;26.84;95.50
18533;BME280;9396;51.510;11.934;2023-08-20T12:40:41;101029.84;;;26.83;96.34
18533;BME280;9396;51.510;11.934;2023-08-20T12:43:08;101040.59;;;26.73;97.40
18533;BME280;9396;51.510;11.934;2023-08-20T12:45:36;101034.41;;;26.77;97.32
18533;BME280;9396;51.510;11.934;2023-08-20T12:48:04;101026.31;;;26.82;96.93